createdAt,value
2022-09-17T00:00:00.927Z,-1129.81
2022-09-17T00:01:04.577Z,-1780.72
2022-09-17T00:02:07.281Z,-2106.06
2022-09-17T00:03:10.394Z,-1129.88
2022-09-17T00:04:12.549Z,-1455.63
2022-09-17T00:05:14.665Z,-479.38
2022-09-17T00:06:16.854Z,-1780.03
2022-09-17T00:07:19.083Z,-1456.44
2022-09-17T00:08:21.207Z,496.47
2022-09-17T00:09:23.424Z,822.06
2022-09-17T00:10:25.621Z,-154.34
2022-09-17T00:11:30.923Z,-806.16
2022-09-17T00:12:33.080Z,171.09
2022-09-17T00:13:35.385Z,822.25
2022-09-17T00:14:37.555Z,822.16
2022-09-17T00:15:46.531Z,-806.94
2022-09-17T00:16:49.367Z,2449.97
2022-09-17T00:17:58.179Z,170.22
2022-09-17T00:19:01.557Z,2450.03
2022-09-17T00:20:05.031Z,2775.75
2022-09-17T00:21:16.320Z,2124.34
2022-09-17T00:22:18.402Z,3752.75
2022-09-17T00:23:20.626Z,5381.34
2022-09-17T00:24:22.881Z,3426.66
2022-09-17T00:25:24.990Z,2775.53
2022-09-17T00:26:28.585Z,2449.97
2022-09-17T00:27:30.843Z,4078.44
2022-09-17T00:28:33.213Z,3752.38
2022-09-17T00:29:35.322Z,3426.91
2022-09-17T00:30:41.150Z,4731.41
2022-09-17T00:31:43.354Z,7990.44
2022-09-17T00:32:45.524Z,8641.63
2022-09-17T00:33:47.773Z,8315.50
2022-09-17T00:34:52.227Z,7990.91
2022-09-17T00:36:01.901Z,7013.72
2022-09-17T00:37:04.055Z,8966.78
2022-09-17T00:38:06.165Z,7987.59
2022-09-17T00:39:10.994Z,3752.63
2022-09-17T00:40:13.320Z,4729.28
2022-09-17T00:41:15.457Z,3751.88
2022-09-17T00:42:19.139Z,1798.75
2022-09-17T00:43:45.017Z,496.50
2022-09-17T00:44:55.579Z,-805.97
2022-09-17T00:45:57.779Z,2449.84
2022-09-17T00:46:59.883Z,822.56
2022-09-17T00:48:05.475Z,822.13
2022-09-17T00:49:14.205Z,-154.63
2022-09-17T00:50:39.566Z,-481.75
2022-09-17T00:51:49.895Z,2450.09
2022-09-17T00:52:56.682Z,170.06
2022-09-17T00:54:01.826Z,1147.31
2022-09-17T00:55:17.847Z,1146.97
2022-09-17T00:56:25.367Z,2450.16
2022-09-17T00:57:29.318Z,2124.38
2022-09-17T00:58:35.846Z,2124.38
2022-09-17T00:59:41.321Z,-803.50
2022-09-17T01:00:43.520Z,-2752.69
2022-09-17T01:01:46.520Z,-3401.28
2022-09-17T01:02:48.895Z,-3076.28
2022-09-17T01:03:51.106Z,-4701.06
2022-09-17T01:04:53.899Z,-5347.47
2022-09-17T01:06:06.523Z,-5349.25
2022-09-17T01:07:37.434Z,-6326.25
2022-09-17T01:08:43.737Z,-7626.63
2022-09-17T01:10:09.342Z,-3731.09
2022-09-17T01:11:11.469Z,-1451.75
2022-09-17T01:12:31.818Z,-4055.03
2022-09-17T01:14:10.234Z,-2755.31
2022-09-17T01:15:21.197Z,-802.72
2022-09-17T01:16:32.362Z,-2429.84
2022-09-17T01:18:05.048Z,-3403.34
2022-09-17T01:19:50.365Z,-3404.41
2022-09-17T01:21:29.853Z,-2755.00
2022-09-17T01:22:54.415Z,-2104.16
2022-09-17T01:24:26.207Z,-2430.63
2022-09-17T01:25:48.906Z,1148.41
2022-09-17T01:27:09.598Z,1148.53
2022-09-17T01:28:11.677Z,3425.72
2022-09-17T01:29:22.284Z,173.50
2022-09-17T01:30:45.832Z,-2103.13
2022-09-17T01:31:54.299Z,-478.44
2022-09-17T01:33:18.119Z,498.38
2022-09-17T01:34:56.596Z,-2101.81
2022-09-17T01:36:20.598Z,-3077.91
2022-09-17T01:37:33.919Z,-2427.66
2022-09-17T01:39:16.089Z,-2102.28
2022-09-17T01:40:32.319Z,-2100.94
2022-09-17T01:41:46.962Z,-2422.69
2022-09-17T01:43:09.599Z,-5673.22
2022-09-17T01:44:21.305Z,-5347.47
2022-09-17T01:45:40.821Z,-3722.38
2022-09-17T01:47:12.270Z,-5026.72
2022-09-17T01:48:25.686Z,-3078.63
2022-09-17T01:49:29.991Z,-1452.19
2022-09-17T01:50:38.994Z,-2427.81
2022-09-17T01:51:46.207Z,-1776.38
2022-09-17T01:52:52.372Z,-2101.19
2022-09-17T01:54:05.431Z,-3728.91
2022-09-17T01:55:11.551Z,-1776.88
2022-09-17T01:56:18.812Z,-2102.50
2022-09-17T01:57:33.724Z,-2103.25
2022-09-17T01:58:42.182Z,-1779.09
2022-09-17T01:59:51.109Z,-478.34
2022-09-17T02:00:59.251Z,172.06
2022-09-17T02:02:17.683Z,-154.16
2022-09-17T02:03:26.419Z,2124.38
2022-09-17T02:04:32.912Z,2775.56
2022-09-17T02:06:10.984Z,4079.16
2022-09-17T02:07:20.921Z,4730.72
2022-09-17T02:08:37.027Z,4404.66
2022-09-17T02:09:45.768Z,4078.69
2022-09-17T02:11:07.601Z,3427.16
2022-09-17T02:12:15.841Z,3426.78
2022-09-17T02:13:23.073Z,3752.25
2022-09-17T02:14:30.405Z,3426.81
2022-09-17T02:15:42.073Z,2124.38
2022-09-17T02:16:50.672Z,2449.94
2022-09-17T02:17:59.129Z,2449.97
2022-09-17T02:19:09.642Z,2449.84
2022-09-17T02:20:13.015Z,2124.38
2022-09-17T02:21:29.175Z,1798.72
2022-09-17T02:22:41.145Z,3752.91
2022-09-17T02:23:50.599Z,3426.53
2022-09-17T02:25:22.133Z,3426.56
2022-09-17T02:26:26.987Z,4077.53
2022-09-17T02:28:03.862Z,2775.28
2022-09-17T02:29:13.068Z,2124.38
2022-09-17T02:30:15.886Z,4076.50
2022-09-17T02:31:18.125Z,2124.41
2022-09-17T02:32:20.330Z,1473.75
2022-09-17T02:33:23.249Z,2449.84
2022-09-17T02:34:27.698Z,3752.44
2022-09-17T02:35:32.182Z,4078.34
2022-09-17T02:36:35.180Z,6032.72
2022-09-17T02:37:37.384Z,7010.50
2022-09-17T02:38:43.495Z,6686.03
2022-09-17T02:39:45.691Z,7985.41
2022-09-17T02:40:54.702Z,5381.91
2022-09-17T02:42:17.514Z,5707.97
2022-09-17T02:43:22.912Z,7338.81
2022-09-17T02:44:35.908Z,8316.81
2022-09-17T02:45:46.436Z,9947.09
2022-09-17T02:46:48.582Z,11898.19
2022-09-17T02:48:32.607Z,8313.59
2022-09-17T02:49:58.925Z,7335.72
2022-09-17T02:51:22.882Z,7331.13
2022-09-17T02:53:14.685Z,3752.16
2022-09-17T02:54:37.116Z,5380.34
2022-09-17T02:55:39.168Z,6680.09
2022-09-17T02:56:54.398Z,3426.47
2022-09-17T02:58:47.365Z,5380.50
2022-09-17T03:00:02.906Z,6032.19
2022-09-17T03:01:12.660Z,5705.63
2022-09-17T03:02:20.542Z,4728.91
2022-09-17T03:03:35.575Z,4077.47
2022-09-17T03:04:39.362Z,6355.41
2022-09-17T03:05:42.930Z,5053.47
2022-09-17T03:06:48.684Z,4076.59
2022-09-17T03:07:51.455Z,4400.88
2022-09-17T03:08:53.598Z,4075.78
2022-09-17T03:09:55.727Z,5703.00
2022-09-17T03:10:58.083Z,7658.00
2022-09-17T03:12:00.212Z,9611.91
2022-09-17T03:13:02.400Z,9284.31
2022-09-17T03:14:04.613Z,9937.91
2022-09-17T03:15:07.258Z,12870.97
2022-09-17T03:16:09.470Z,12218.97
2022-09-17T03:17:12.317Z,11892.63
2022-09-17T03:18:14.413Z,11891.03
2022-09-17T03:19:16.582Z,11236.06
2022-09-17T03:20:18.748Z,9282.34
2022-09-17T03:21:20.842Z,8957.56
2022-09-17T03:22:22.946Z,9932.44
2022-09-17T03:23:25.514Z,7979.38
2022-09-17T03:24:27.626Z,7655.59
2022-09-17T03:25:29.688Z,8632.22
2022-09-17T03:26:32.118Z,8957.78
2022-09-17T03:27:34.232Z,8956.84
2022-09-17T03:28:36.318Z,8306.56
2022-09-17T03:29:38.449Z,9284.59
2022-09-17T03:30:40.702Z,9936.25
2022-09-17T03:31:43.211Z,10587.53
2022-09-17T03:32:45.756Z,11566.47
2022-09-17T03:33:48.456Z,13521.03
2022-09-17T03:34:50.660Z,13518.78
2022-09-17T03:35:52.807Z,10258.91
2022-09-17T03:36:55.012Z,10910.56
2022-09-17T03:37:57.204Z,11888.75
2022-09-17T03:38:59.999Z,12214.88
2022-09-17T03:40:02.703Z,12866.78
2022-09-17T03:41:09.612Z,11889.06
2022-09-17T03:42:11.814Z,11233.53
2022-09-17T03:43:13.952Z,11230.44
2022-09-17T03:44:16.060Z,9603.66
2022-09-17T03:45:18.172Z,9929.41
2022-09-17T03:46:20.978Z,9930.16
2022-09-17T03:47:23.172Z,11230.88
2022-09-17T03:48:25.290Z,10253.38
2022-09-17T03:49:27.429Z,10580.41
2022-09-17T03:50:29.590Z,10905.34
2022-09-17T03:51:31.857Z,10254.56
2022-09-17T03:52:34.369Z,10904.22
2022-09-17T03:53:36.498Z,11554.97
2022-09-17T03:54:38.623Z,12207.03
2022-09-17T03:55:41.504Z,11880.50
2022-09-17T03:56:43.637Z,11228.97
2022-09-17T03:57:45.778Z,10577.25
2022-09-17T03:58:47.878Z,10902.94
2022-09-17T03:59:49.964Z,11553.81
2022-09-17T04:00:53.332Z,11229.03
2022-09-17T04:01:55.628Z,10902.28
2022-09-17T04:02:57.859Z,11226.59
2022-09-17T04:04:00.019Z,10250.41
2022-09-17T04:05:02.254Z,9597.88
2022-09-17T04:06:04.794Z,9271.44
2022-09-17T04:07:06.921Z,8948.41
2022-09-17T04:08:09.047Z,10575.25
2022-09-17T04:09:11.166Z,11877.56
2022-09-17T04:10:13.405Z,12528.47
2022-09-17T04:11:15.594Z,11876.47
2022-09-17T04:12:17.741Z,13505.56
2022-09-17T04:13:20.324Z,14482.94
2022-09-17T04:14:22.491Z,13178.41
2022-09-17T04:15:24.643Z,12197.84
2022-09-17T04:16:26.888Z,8294.97
2022-09-17T04:17:29.093Z,6671.03
2022-09-17T04:18:31.348Z,6670.50
2022-09-17T04:19:33.442Z,6995.59
2022-09-17T04:20:35.549Z,7321.47
2022-09-17T04:21:37.646Z,9272.38
2022-09-17T04:22:39.820Z,8946.63
2022-09-17T04:23:41.971Z,9597.09
2022-09-17T04:24:44.143Z,9270.97
2022-09-17T04:25:46.421Z,7970.72
2022-09-17T04:26:48.571Z,7321.13
2022-09-17T04:27:50.987Z,8296.06
2022-09-17T04:28:53.061Z,6670.31
2022-09-17T04:29:55.228Z,6996.84
2022-09-17T04:30:57.754Z,8946.84
2022-09-17T04:31:59.977Z,7972.34
2022-09-17T04:33:02.523Z,9922.91
2022-09-17T04:34:04.758Z,8949.66
2022-09-17T04:35:07.197Z,9925.56
2022-09-17T04:36:09.332Z,12526.44
2022-09-17T04:37:11.505Z,10901.28
2022-09-17T04:38:18.627Z,11228.38
2022-09-17T04:39:20.785Z,12856.66
2022-09-17T04:40:24.431Z,13837.13
2022-09-17T04:41:26.625Z,17416.97
2022-09-17T04:42:28.884Z,15461.72
2022-09-17T04:43:31.104Z,14483.25
2022-09-17T04:44:33.282Z,14482.53
2022-09-17T04:45:35.442Z,13178.41
2022-09-17T04:46:37.632Z,12527.97
2022-09-17T04:47:40.296Z,12202.28
2022-09-17T04:48:42.597Z,11226.59
2022-09-17T04:49:44.860Z,12198.34
2022-09-17T04:50:47.087Z,10248.38
2022-09-17T04:51:49.170Z,11550.69
2022-09-17T04:52:51.277Z,11227.03
2022-09-17T04:53:53.412Z,13180.75
2022-09-17T04:54:55.575Z,14809.31
2022-09-17T04:55:57.703Z,15461.81
2022-09-17T04:57:00.837Z,16114.06
2022-09-17T04:58:03.042Z,18394.09
2022-09-17T04:59:05.174Z,19698.59
2022-09-17T05:00:10.191Z,21333.63
2022-09-17T05:01:13.871Z,22310.59
2022-09-17T05:02:16.115Z,22633.38
2022-09-17T05:03:18.322Z,21981.44
2022-09-17T05:04:20.790Z,23610.41
2022-09-17T05:05:24.079Z,21325.50
2022-09-17T05:06:26.187Z,20021.00
2022-09-17T05:07:28.292Z,22300.41
2022-09-17T05:08:30.610Z,21325.19
2022-09-17T05:09:32.727Z,22951.63
2022-09-17T05:10:35.274Z,21323.47
2022-09-17T05:11:37.441Z,20995.72
2022-09-17T05:12:39.641Z,23606.38
2022-09-17T05:13:41.886Z,22626.69
2022-09-17T05:14:44.003Z,24255.97
2022-09-17T05:15:46.316Z,24584.56
2022-09-17T05:16:48.599Z,26217.94
2022-09-17T05:17:50.952Z,26544.16
2022-09-17T05:18:53.231Z,25564.81
2022-09-17T05:19:55.406Z,23600.59
2022-09-17T05:20:57.480Z,21643.63
2022-09-17T05:21:59.599Z,22297.28
2022-09-17T05:23:01.709Z,21640.28
2022-09-17T05:24:03.971Z,21313.91
2022-09-17T05:25:06.395Z,20988.50
2022-09-17T05:26:08.500Z,21639.03
2022-09-17T05:27:10.675Z,20659.44
2022-09-17T05:28:12.904Z,20660.34
2022-09-17T05:29:15.026Z,21636.16
2022-09-17T05:30:17.489Z,21962.66
2022-09-17T05:31:19.681Z,19353.19
2022-09-17T05:32:21.806Z,18052.72
2022-09-17T05:33:23.961Z,19032.50
2022-09-17T05:34:26.135Z,21312.34
2022-09-17T05:35:28.339Z,21964.13
2022-09-17T05:36:30.573Z,20661.88
2022-09-17T05:37:32.686Z,20333.81
2022-09-17T05:38:34.860Z,21315.78
2022-09-17T05:39:37.123Z,21636.31
2022-09-17T05:40:39.352Z,21313.59
2022-09-17T05:41:41.474Z,21963.81
2022-09-17T05:42:43.845Z,22614.50
2022-09-17T05:43:46.032Z,20983.25
2022-09-17T05:44:48.306Z,20984.19
2022-09-17T05:45:50.523Z,20985.13
2022-09-17T05:46:54.241Z,19354.47
2022-09-17T05:47:57.621Z,17400.81
2022-09-17T05:48:59.825Z,19030.31
2022-09-17T05:50:01.926Z,20325.50
2022-09-17T05:51:04.140Z,17072.72
2022-09-17T05:52:06.242Z,18703.97
2022-09-17T05:53:11.902Z,19686.28
2022-09-17T05:54:14.014Z,21309.69
2022-09-17T05:55:16.531Z,21966.72
2022-09-17T05:56:19.439Z,21958.63
2022-09-17T05:57:21.658Z,20985.41
2022-09-17T05:58:24.163Z,23267.41
2022-09-17T05:59:26.286Z,22616.31
2022-09-17T06:00:28.424Z,22291.19
2022-09-17T06:01:30.659Z,22617.31
2022-09-17T06:02:32.800Z,22622.34
2022-09-17T06:03:34.941Z,24577.97
2022-09-17T06:04:37.031Z,23275.34
2022-09-17T06:05:39.473Z,21646.19
2022-09-17T06:06:41.736Z,22627.34
2022-09-17T06:07:43.877Z,25239.41
2022-09-17T06:08:46.036Z,28503.94
2022-09-17T06:09:48.256Z,27847.28
2022-09-17T06:10:50.694Z,23931.34
2022-09-17T06:11:53.261Z,21323.94
2022-09-17T06:12:56.849Z,21979.00
2022-09-17T06:13:59.068Z,25228.84
2022-09-17T06:15:01.908Z,22626.19
2022-09-17T06:16:04.260Z,23929.22
2022-09-17T06:17:08.316Z,26218.72
2022-09-17T06:18:10.926Z,26543.34
2022-09-17T06:19:13.030Z,27197.84
2022-09-17T06:20:16.927Z,29815.78
2022-09-17T06:21:24.272Z,30804.47
2022-09-17T06:22:27.613Z,30803.28
2022-09-17T06:23:37.115Z,27884.88
2022-09-17T06:24:39.278Z,33771.53
2022-09-17T06:25:41.427Z,38702.75
2022-09-17T06:26:43.527Z,48243.91
2022-09-17T06:27:45.632Z,59454.91
2022-09-17T06:28:47.742Z,61476.75
2022-09-17T06:29:49.831Z,67491.59
2022-09-17T06:30:57.061Z,99123.50
2022-09-17T06:32:00.015Z,120536.75
2022-09-17T06:33:02.496Z,114161.81
2022-09-17T06:34:05.610Z,115548.50
2022-09-17T06:35:08.366Z,111266.94
2022-09-17T06:36:13.917Z,134764.03
2022-09-17T06:37:16.936Z,134098.56
2022-09-17T06:38:19.057Z,144911.09
2022-09-17T06:39:21.329Z,149007.59
2022-09-17T06:40:23.744Z,149002.69
2022-09-17T06:41:26.022Z,148808.31
2022-09-17T06:42:31.229Z,148945.63
2022-09-17T06:43:33.939Z,148974.78
2022-09-17T06:44:36.128Z,148985.69
2022-09-17T06:45:39.319Z,149115.75
2022-09-17T06:46:43.001Z,149204.50
2022-09-17T06:47:45.184Z,149204.50
2022-09-17T06:48:47.373Z,149110.91
2022-09-17T06:49:49.499Z,149155.84
2022-09-17T06:50:54.268Z,149254.31
2022-09-17T06:51:56.549Z,149266.44
2022-09-17T06:52:58.664Z,149332.09
2022-09-17T06:54:01.544Z,149414.88
2022-09-17T06:55:03.897Z,149406.38
2022-09-17T06:56:08.257Z,149250.66
2022-09-17T06:57:10.376Z,149400.28
2022-09-17T06:58:12.502Z,149433.13
2022-09-17T06:59:14.713Z,149367.47
2022-09-17T07:00:16.950Z,149517.03
2022-09-17T07:01:19.099Z,149500.03
2022-09-17T07:02:21.455Z,149479.31
2022-09-17T07:03:23.610Z,149484.19
2022-09-17T07:04:25.714Z,149384.47
2022-09-17T07:05:29.500Z,149327.25
2022-09-17T07:06:31.653Z,149254.31
2022-09-17T07:07:35.730Z,149423.38
2022-09-17T07:08:39.441Z,149472.03
2022-09-17T07:09:41.603Z,149411.22
2022-09-17T07:10:43.706Z,149532.88
2022-09-17T07:11:45.911Z,149664.31
2022-09-17T07:12:50.017Z,149789.69
2022-09-17T07:13:52.307Z,149782.41
2022-09-17T07:14:54.411Z,149605.91
2022-09-17T07:15:59.310Z,149652.13
2022-09-17T07:17:01.481Z,149795.81
2022-09-17T07:18:11.394Z,149887.09
2022-09-17T07:19:14.947Z,149643.63
2022-09-17T07:20:17.405Z,149665.53
2022-09-17T07:21:19.547Z,149693.53
2022-09-17T07:22:24.695Z,149807.97
2022-09-17T07:23:29.214Z,149622.91
2022-09-17T07:24:33.019Z,149470.81
2022-09-17T07:25:35.263Z,149386.88
2022-09-17T07:26:37.370Z,149532.88
2022-09-17T07:27:39.494Z,149543.81
2022-09-17T07:28:43.847Z,149613.19
2022-09-17T07:29:45.945Z,149695.97
2022-09-17T07:30:48.459Z,149513.38
2022-09-17T07:31:50.717Z,149513.38
2022-09-17T07:32:53.114Z,149615.63
2022-09-17T07:33:55.222Z,149551.09
2022-09-17T07:34:57.392Z,149491.47
2022-09-17T07:36:02.162Z,149581.56
2022-09-17T07:37:04.300Z,149338.28
2022-09-17T07:38:06.406Z,149430.66
2022-09-17T07:39:08.597Z,149507.31
2022-09-17T07:40:10.782Z,149636.34
2022-09-17T07:41:15.108Z,149585.22
2022-09-17T07:42:17.215Z,149593.72
2022-09-17T07:43:19.298Z,149675.25
2022-09-17T07:44:22.575Z,149658.22
2022-09-17T07:45:24.838Z,149790.91
2022-09-17T07:46:27.013Z,149722.72
2022-09-17T07:47:29.175Z,149885.88
2022-09-17T07:48:31.577Z,150047.91
2022-09-17T07:49:33.696Z,149991.91
2022-09-17T07:50:37.863Z,150278.22
2022-09-17T07:51:40.680Z,150192.97
2022-09-17T07:52:48.775Z,150038.16
2022-09-17T07:53:55.799Z,150062.56
2022-09-17T07:54:57.901Z,150275.81
2022-09-17T07:56:00.977Z,150250.19
2022-09-17T07:57:03.898Z,150212.44
2022-09-17T07:58:06.205Z,150234.38
2022-09-17T07:59:09.541Z,150178.25
2022-09-17T08:00:13.498Z,150248.97
2022-09-17T08:01:16.977Z,150236.81
2022-09-17T08:02:24.218Z,150213.66
2022-09-17T08:03:26.748Z,150489.19
2022-09-17T08:04:28.888Z,150567.28
2022-09-17T08:05:32.242Z,150735.59
2022-09-17T08:06:38.394Z,150707.53
2022-09-17T08:07:40.505Z,150712.47
2022-09-17T08:08:42.661Z,150662.44
2022-09-17T08:09:44.815Z,150446.50
2022-09-17T08:10:46.915Z,150739.25
2022-09-17T08:11:56.081Z,150883.34
2022-09-17T08:12:59.674Z,150768.59
2022-09-17T08:14:02.028Z,150614.88
2022-09-17T08:15:04.311Z,150629.50
2022-09-17T08:16:15.137Z,150774.69
2022-09-17T08:17:17.457Z,150751.53
2022-09-17T08:18:20.028Z,150757.63
2022-09-17T08:19:22.210Z,150599.00
2022-09-17T08:20:26.168Z,150810.13
2022-09-17T08:21:28.265Z,150557.50
2022-09-17T08:22:31.604Z,150458.72
2022-09-17T08:23:38.805Z,150346.50
2022-09-17T08:24:42.495Z,150273.38
2022-09-17T08:25:44.595Z,150366.00
2022-09-17T08:26:47.258Z,150492.84
2022-09-17T08:27:53.651Z,150646.59
2022-09-17T08:28:56.518Z,150876.03
2022-09-17T08:29:59.080Z,150705.09
2022-09-17T08:31:03.997Z,150800.31
2022-09-17T08:32:06.219Z,150724.66
2022-09-17T08:33:08.295Z,150868.66
2022-09-17T08:34:10.744Z,150746.66
2022-09-17T08:35:12.872Z,150800.31
2022-09-17T08:36:17.257Z,150583.16
2022-09-17T08:37:20.416Z,150466.03
2022-09-17T08:38:22.535Z,150547.75
2022-09-17T08:39:24.736Z,150424.59
2022-09-17T08:40:28.491Z,150207.56
2022-09-17T08:41:39.871Z,150288.00
2022-09-17T08:42:54.922Z,150268.50
2022-09-17T08:43:59.844Z,150125.91
2022-09-17T08:45:05.425Z,149881.03
2022-09-17T08:46:10.661Z,149788.47
2022-09-17T08:47:15.863Z,149776.28
2022-09-17T08:48:19.001Z,149554.75
2022-09-17T08:49:29.989Z,149599.84
2022-09-17T08:50:34.225Z,149693.53
2022-09-17T08:51:54.326Z,149659.41
2022-09-17T08:52:56.342Z,149501.25
2022-09-17T08:54:11.164Z,149599.84
2022-09-17T08:55:18.928Z,149456.22
2022-09-17T08:56:21.573Z,149452.56
2022-09-17T08:57:46.859Z,149515.81
2022-09-17T08:58:54.763Z,149377.16
2022-09-17T09:00:09.332Z,149372.31
2022-09-17T09:01:24.055Z,149375.97
2022-09-17T09:02:39.600Z,149448.91
2022-09-17T09:04:20.129Z,149581.56
2022-09-17T09:05:50.368Z,149542.59
2022-09-17T09:07:04.412Z,149636.34
2022-09-17T09:08:26.380Z,149506.09
2022-09-17T09:09:39.181Z,149598.63
2022-09-17T09:10:55.738Z,149654.56
2022-09-17T09:12:07.808Z,149593.72
2022-09-17T09:13:12.225Z,149518.25
2022-09-17T09:14:28.576Z,149414.88
2022-09-17T09:15:43.635Z,149472.03
2022-09-17T09:16:46.872Z,149335.84
2022-09-17T09:17:51.341Z,149215.41
2022-09-17T09:18:55.879Z,149328.47
2022-09-17T09:19:58.133Z,149347.97
2022-09-17T09:21:18.676Z,149433.13
2022-09-17T09:22:33.396Z,149469.63
2022-09-17T09:23:53.266Z,149542.59
2022-09-17T09:25:17.758Z,149450.13
2022-09-17T09:26:46.358Z,149469.63
2022-09-17T09:28:15.277Z,149526.75
2022-09-17T09:29:38.939Z,149563.34
2022-09-17T09:30:52.961Z,149607.13
2022-09-17T09:32:16.416Z,149653.34
2022-09-17T09:33:47.579Z,149586.41
2022-09-17T09:34:51.421Z,149691.06
2022-09-17T09:35:53.661Z,149664.31
2022-09-17T09:37:12.682Z,149805.56
2022-09-17T09:38:38.468Z,149899.31
2022-09-17T09:39:45.902Z,149913.91
2022-09-17T09:41:00.918Z,149889.53
2022-09-17T09:42:15.151Z,149956.56
2022-09-17T09:43:20.060Z,149810.41
2022-09-17T09:44:24.771Z,149893.22
2022-09-17T09:45:41.898Z,149960.19
2022-09-17T09:47:08.139Z,149784.84
2022-09-17T09:48:28.007Z,149885.88
2022-09-17T09:50:08.812Z,149940.69
2022-09-17T09:51:53.745Z,149934.63
2022-09-17T09:53:17.230Z,149962.63
2022-09-17T09:54:40.613Z,149999.22
2022-09-17T09:55:52.027Z,149887.09
2022-09-17T09:56:58.001Z,149941.91
2022-09-17T09:58:19.698Z,149898.09
2022-09-17T09:59:21.914Z,149812.84
2022-09-17T10:01:50.879Z,149771.41
2022-09-17T10:03:16.000Z,149809.19
2022-09-17T10:04:23.801Z,149734.91
2022-09-17T10:05:25.982Z,149635.13
2022-09-17T10:06:30.922Z,149700.84
2022-09-17T10:07:44.629Z,149742.19
2022-09-17T10:08:49.926Z,149719.06
2022-09-17T10:10:09.267Z,149854.22
2022-09-17T10:11:11.449Z,149902.94
2022-09-17T10:12:13.650Z,150007.72
2022-09-17T10:13:17.762Z,150114.91
2022-09-17T10:14:29.703Z,150385.56
2022-09-17T10:15:31.791Z,150406.28
2022-09-17T10:16:36.299Z,150455.06
2022-09-17T10:17:38.521Z,150569.72
2022-09-17T10:18:40.636Z,150550.19
2022-09-17T10:19:44.508Z,150616.09
2022-09-17T10:20:58.314Z,150796.66
2022-09-17T10:22:18.408Z,150868.66
2022-09-17T10:23:22.448Z,150956.59
2022-09-17T10:24:29.539Z,150897.97
2022-09-17T10:25:34.754Z,151067.69
2022-09-17T10:26:37.617Z,151208.19
2022-09-17T10:27:44.426Z,151407.34
2022-09-17T10:29:16.436Z,151349.91
2022-09-17T10:30:19.308Z,151371.94
2022-09-17T10:31:23.186Z,151386.56
2022-09-17T10:32:25.410Z,151462.34
2022-09-17T10:33:30.260Z,151452.59
2022-09-17T10:34:33.081Z,151733.84
2022-09-17T10:35:35.273Z,151859.78
2022-09-17T10:36:45.057Z,151899.00
2022-09-17T10:37:50.285Z,151731.38
2022-09-17T10:38:52.475Z,151340.16
2022-09-17T10:39:56.620Z,151369.50
2022-09-17T10:41:19.905Z,151713.00
2022-09-17T10:42:22.079Z,151530.78
2022-09-17T10:43:24.252Z,151651.88
2022-09-17T10:44:29.195Z,151739.97
2022-09-17T10:45:32.332Z,151777.84
2022-09-17T10:46:35.241Z,151772.97
2022-09-17T10:47:42.738Z,151815.75
2022-09-17T10:48:55.774Z,151856.09
2022-09-17T10:50:16.433Z,151528.34
2022-09-17T10:51:22.927Z,151422.03
2022-09-17T10:52:29.629Z,151152.00
2022-09-17T10:53:38.379Z,151169.06
2022-09-17T10:54:43.328Z,151181.31
2022-09-17T10:55:58.051Z,151156.88
2022-09-17T10:57:01.999Z,150985.91
2022-09-17T10:58:10.212Z,151120.25
2022-09-17T10:59:27.628Z,151068.91
2022-09-17T11:00:44.093Z,151144.69
2022-09-17T11:02:31.164Z,151237.47
2022-09-17T11:03:48.739Z,151032.28
2022-09-17T11:05:04.407Z,150941.97
2022-09-17T11:06:36.746Z,150782.06
2022-09-17T11:07:48.054Z,150636.78
2022-09-17T11:08:59.177Z,150513.56
2022-09-17T11:10:07.431Z,150331.88
2022-09-17T11:11:28.934Z,150357.50
2022-09-17T11:12:49.749Z,150281.88
2022-09-17T11:14:06.339Z,150238.03
2022-09-17T11:15:20.435Z,150097.88
2022-09-17T11:16:48.500Z,150052.78
2022-09-17T11:18:18.358Z,150012.59
2022-09-17T11:19:29.392Z,149734.91
2022-09-17T11:21:19.459Z,149474.47
2022-09-17T11:22:27.317Z,149289.56
2022-09-17T11:23:32.075Z,149123.03
2022-09-17T11:24:45.705Z,149029.41
2022-09-17T11:26:00.275Z,133852.81
2022-09-17T11:27:17.001Z,102209.41
2022-09-17T11:28:33.454Z,97150.59
2022-09-17T11:29:54.395Z,77458.97
2022-09-17T11:31:18.355Z,64573.13
2022-09-17T11:32:50.419Z,61522.47
2022-09-17T11:34:13.415Z,49982.81
2022-09-17T11:35:21.193Z,49008.13
2022-09-17T11:36:31.266Z,56246.59
2022-09-17T11:37:38.394Z,48324.34
2022-09-17T11:38:51.581Z,41735.28
2022-09-17T11:39:59.663Z,39082.22
2022-09-17T11:41:11.073Z,34491.97
2022-09-17T11:42:25.768Z,26290.16
2022-09-17T11:43:32.611Z,26280.91
2022-09-17T11:44:45.174Z,21708.94
2022-09-17T11:45:57.270Z,19098.72
2022-09-17T11:47:13.880Z,27619.19
2022-09-17T11:48:24.700Z,23696.91
2022-09-17T11:49:34.254Z,27633.53
2022-09-17T11:50:57.268Z,24028.25
2022-09-17T11:52:18.847Z,21405.25
2022-09-17T11:53:30.170Z,26643.53
2022-09-17T11:54:52.508Z,25682.78
2022-09-17T11:56:23.123Z,30292.59
2022-09-17T11:57:33.584Z,27660.38
2022-09-17T11:58:36.124Z,27644.78
2022-09-17T12:00:03.465Z,27011.59
2022-09-17T12:01:21.397Z,29308.13
2022-09-17T12:02:42.737Z,27665.34
2022-09-17T12:04:01.248Z,30296.97
2022-09-17T12:05:09.954Z,27996.00
2022-09-17T12:06:16.790Z,25042.50
2022-09-17T12:07:33.836Z,23733.13
2022-09-17T12:09:18.719Z,22425.38
2022-09-17T12:10:42.742Z,29977.97
2022-09-17T12:12:06.687Z,37533.56
2022-09-17T12:13:36.483Z,29984.56
2022-09-17T12:14:50.745Z,36224.16
2022-09-17T12:16:20.412Z,26687.09
2022-09-17T12:17:28.399Z,30299.03
2022-09-17T12:18:39.745Z,26021.91
2022-09-17T12:19:50.578Z,20106.59
2022-09-17T12:20:54.854Z,17816.38
2022-09-17T12:22:02.112Z,15201.72
2022-09-17T12:23:11.172Z,18148.16
2022-09-17T12:24:19.625Z,16839.75
2022-09-17T12:25:22.467Z,16502.31
2022-09-17T12:26:30.698Z,13555.63
2022-09-17T12:27:59.707Z,8981.56
2022-09-17T12:29:08.034Z,11590.72
2022-09-17T12:30:22.444Z,14857.88
2022-09-17T12:32:00.357Z,7997.09
2022-09-17T12:34:03.200Z,7348.50
2022-09-17T12:35:23.804Z,8981.88
2022-09-17T12:37:05.229Z,11935.97
2022-09-17T12:38:44.296Z,17206.47
2022-09-17T12:40:05.110Z,29049.75
2022-09-17T12:41:24.507Z,19197.16
2022-09-17T12:42:38.322Z,40653.09
2022-09-17T12:44:02.227Z,54282.22
2022-09-17T12:45:26.089Z,68239.16
2022-09-17T12:47:07.020Z,66634.84
2022-09-17T12:48:23.487Z,47381.91
2022-09-17T12:49:25.702Z,57023.91
2022-09-17T12:50:36.139Z,75393.00
2022-09-17T12:51:47.235Z,82040.06
2022-09-17T12:53:27.334Z,81433.03
2022-09-17T12:55:06.516Z,81832.00
2022-09-17T12:56:42.671Z,83160.22
2022-09-17T12:57:50.904Z,128668.50
2022-09-17T12:59:05.314Z,112579.53
2022-09-17T13:00:13.487Z,138735.66
2022-09-17T13:01:25.150Z,150386.78
2022-09-17T13:02:34.834Z,150488.00
2022-09-17T13:03:45.482Z,150279.44
2022-09-17T13:05:02.037Z,150292.88
2022-09-17T13:06:09.035Z,150352.63
2022-09-17T13:07:45.588Z,150448.97
2022-09-17T13:09:03.393Z,150397.75
2022-09-17T13:10:20.061Z,150085.66
2022-09-17T13:11:57.320Z,149990.69
2022-09-17T13:13:36.715Z,149807.97
2022-09-17T13:15:00.352Z,149671.63
2022-09-17T13:16:30.868Z,111615.91
2022-09-17T13:17:38.058Z,87697.41
2022-09-17T13:19:15.548Z,78634.75
2022-09-17T13:20:31.486Z,70613.81
2022-09-17T13:21:42.932Z,80257.75
2022-09-17T13:22:47.892Z,63639.75
2022-09-17T13:23:52.057Z,56336.13